Weather at Lincolns Field

Public forecast

Using degrees Fahrenheit for public forecast. Weather courtesy of forecast.io.

Closest aviation weather report (METAR) to Lincolns Field

Closest report is Havre City County Airport, 30.3 nm (56.2 km) ESE. Retrieved 2022/07/04 12:29 UTC (18 minutes ago):

KHVR 041229Z AUTO 22005KT 10SM OVC015 16/16 A2993

Closest aviation forecast (TAF) to Lincolns Field

Closest forecast is Havre City County Airport, 30.3 nm (56.2 km) ESE. Retrieved 2022/07/04 12:33 UTC (14 minutes ago):

TAF KHVR 041131Z 0412/0512 VRB04KT P6SM OVC010 FM041700 34007KT P6SM SCT070 PROB30 0500/0504 4SM TSRA BR BKN060CB FM050500 VRB03KT P6SM SCT060